»·PEaware :: N6065L KMYF-KAVX

N6065L :: KMYF-KAVX

FLIGHT INFORMATION

Flight Status: Arrived
Operator: Privately registered:
United States
More flights under this callsign
Pilot: Kyle A. (14988)
Aircraft: CESSNA 172 SKYHAWK
(C172)
More flights by this aircraft type
Origin: KMYF Montgomery
United States
Destination: KAVX Catalina
United States
More flights between these airports :: More routes between these airports
Route: MZB V23 OCN V208 SXC
File this flight plan on PilotEdge
Remarks: SANN1
Altitude:
(Current/Filed)
6,000ft
Speed:
(Current/Filed)
120kts
Departed: 08-Dec-17 01:44 PM
Arrived: 08-Dec-17 02:31 PM
Distance/Time
Traveled:
73nm/0:46
Distance/Time
To Go:
Arrived

Flight Plot

Page will automatically refresh every two minutes.


Map Options




Map Legend


Flown Route
Filed Route
Departure Airport
Arrival Airport
Navaid (VOR, NDB)
Fix

Horizontal Profiles

Position Reports

Time Latitude Longitude Heading Altitude Ground
Speed
08-Dec-17 13:35 32.810455 -117.139368 177 412ft 0kts
08-Dec-17 13:36 32.810455 -117.139368 177 412ft 0kts
08-Dec-17 13:37 32.810455 -117.139368 177 412ft 0kts
08-Dec-17 13:38 32.810455 -117.139368 177 412ft 0kts
08-Dec-17 13:39 32.810455 -117.139368 177 412ft 0kts
08-Dec-17 13:40 32.810455 -117.139368 177 412ft 0kts
08-Dec-17 13:41 32.810455 -117.139368 177 412ft 0kts
08-Dec-17 13:42 32.810455 -117.139368 177 412ft 0kts
08-Dec-17 13:43 32.810455 -117.139368 177 412ft 0kts
08-Dec-17 13:44 32.810308 -117.138946 88 412ft 0kts
08-Dec-17 13:45 32.810719 -117.138113 358 412ft 6kts
08-Dec-17 13:46 32.812897 -117.137044 106 412ft 7kts
08-Dec-17 13:47 32.811524 -117.133755 120 412ft 13kts
08-Dec-17 13:48 32.812085 -117.131434 22 412ft 0kts
08-Dec-17 13:49 32.812084 -117.131434 22 412ft 0kts
08-Dec-17 13:50 32.815295 -117.137537 296 509ft 82kts
08-Dec-17 13:51 32.821841 -117.163117 282 1778ft 81kts
08-Dec-17 13:52 32.826316 -117.189465 282 2937ft 86kts
08-Dec-17 13:53 32.831275 -117.225765 282 3025ft 123kts
08-Dec-17 13:54 32.836111 -117.262662 286 3881ft 110kts
08-Dec-17 13:55 32.844423 -117.295489 338 4776ft 95kts
08-Dec-17 13:56 32.868691 -117.303275 352 5674ft 89kts
08-Dec-17 13:57 32.895891 -117.311509 350 5999ft 111kts
08-Dec-17 13:57 32.920446 -117.319108 350 5998ft 111kts
08-Dec-17 13:59 32.955868 -117.330074 350 6000ft 118kts
08-Dec-17 14:00 32.986368 -117.339508 350 5997ft 121kts
08-Dec-17 14:01 33.018878 -117.349365 346 5998ft 120kts
08-Dec-17 14:02 33.051265 -117.359239 343 5997ft 120kts
08-Dec-17 14:02 33.078440 -117.367639 342 5997ft 123kts
08-Dec-17 14:04 33.116976 -117.379583 342 5997ft 124kts
08-Dec-17 14:05 33.149366 -117.389609 342 5997ft 124kts
08-Dec-17 14:05 33.176636 -117.398041 342 5997ft 124kts
08-Dec-17 14:06 33.209992 -117.408277 341 6015ft 122kts
08-Dec-17 14:07 33.236965 -117.419112 306 6005ft 116kts
08-Dec-17 14:09 33.245378 -117.462949 282 5999ft 117kts
08-Dec-17 14:09 33.249752 -117.494818 281 5997ft 116kts
08-Dec-17 14:10 33.254608 -117.533120 280 5997ft 116kts
08-Dec-17 14:11 33.259307 -117.571347 280 5997ft 116kts
08-Dec-17 14:12 33.264958 -117.609427 282 5997ft 116kts
08-Dec-17 14:13 33.270636 -117.647035 282 5997ft 116kts
08-Dec-17 14:14 33.276255 -117.684295 282 5998ft 116kts
08-Dec-17 14:15 33.282002 -117.722456 282 5998ft 116kts
08-Dec-17 14:16 33.287548 -117.760751 281 5998ft 116kts
08-Dec-17 14:17 33.292753 -117.799109 281 5998ft 116kts
08-Dec-17 14:18 33.297977 -117.837541 278 5997ft 116kts
08-Dec-17 14:19 33.303068 -117.875514 278 5998ft 115kts
08-Dec-17 14:20 33.308186 -117.913616 278 5998ft 115kts
08-Dec-17 14:21 33.313408 -117.952230 274 5970ft 120kts
08-Dec-17 14:22 33.318730 -117.992315 274 5970ft 123kts
08-Dec-17 14:23 33.323994 -118.032178 277 6024ft 123kts
08-Dec-17 14:24 33.329521 -118.073687 279 6025ft 128kts
08-Dec-17 14:25 33.335289 -118.116924 279 6025ft 133kts
08-Dec-17 14:26 33.340780 -118.158375 279 6006ft 133kts
08-Dec-17 14:27 33.346783 -118.203709 280 5206ft 138kts
08-Dec-17 14:28 33.353402 -118.249015 294 4567ft 137kts
08-Dec-17 14:29 33.366452 -118.291181 291 4045ft 133kts
08-Dec-17 14:30 33.378358 -118.329590 291 3449ft 133kts
08-Dec-17 14:31 33.390258 -118.372814 288 2756ft 138kts
08-Dec-17 14:32 33.402468 -118.408857 302 2619ft 98kts
08-Dec-17 14:33 33.412315 -118.435377 254 2525ft 84kts
08-Dec-17 14:34 33.396577 -118.442280 139 1959ft 71kts
08-Dec-17 14:35 33.400951 -118.422615 55 1719ft 63kts
08-Dec-17 14:36 33.404351 -118.415031 172 1588ft 5kts
08-Dec-17 14:37 33.403477 -118.415138 315 1591ft 0kts
08-Dec-17 14:38 33.403477 -118.415138 315 1591ft 0kts

Navigation Log

Ident Type
1. KMYF Airport
2. MZB Navaid
3. CARIF Fix
4. HURSI Fix
5. OCN Navaid
6. HUBRD Fix
7. PACIF Fix
8. AVOLS Fix
9. SXC Navaid
10. KAVX Airport